createdAt,value
2023-01-21T00:16:39.629Z,99371.47
2023-01-21T00:19:41.976Z,99394.53
2023-01-21T02:13:20.237Z,99377.75
2023-01-21T02:18:56.972Z,99353.44
2023-01-21T03:04:52.994Z,99351.50
2023-01-21T03:07:31.695Z,99380.31
2023-01-21T03:19:45.531Z,99338.03
2023-01-21T06:00:04.791Z,99433.63
2023-01-21T07:39:23.848Z,99500.38
2023-01-21T07:48:12.718Z,99525.44
2023-01-21T08:06:25.045Z,99526.91
2023-01-21T08:08:55.049Z,99540.97
2023-01-21T08:11:29.734Z,99534.41
2023-01-21T08:23:06.164Z,99527.47
2023-01-21T08:37:57.592Z,99548.28
2023-01-21T09:01:45.539Z,99558.19
2023-01-21T09:04:18.235Z,99571.41
2023-01-21T09:13:31.170Z,99593.84
2023-01-21T09:16:06.832Z,99590.81
2023-01-21T09:18:38.584Z,99598.44
2023-01-21T09:21:13.594Z,99597.19
2023-01-21T09:23:44.915Z,99598.78
2023-01-21T09:26:20.695Z,99600.72
2023-01-21T09:28:53.924Z,99597.00
2023-01-21T09:31:29.153Z,99595.72
2023-01-21T09:34:14.412Z,99616.56
2023-01-21T09:36:51.960Z,99606.91
2023-01-21T09:39:23.989Z,99585.41
2023-01-21T09:42:04.569Z,99580.13
2023-01-21T09:44:45.208Z,99577.19
2023-01-21T09:50:59.050Z,99592.34
2023-01-21T09:53:37.481Z,99587.81
2023-01-21T09:56:25.112Z,99567.00
2023-01-21T09:59:06.621Z,99581.00
2023-01-21T10:11:07.365Z,99569.88
2023-01-21T10:14:10.594Z,99557.69
2023-01-21T10:16:45.996Z,99576.84
2023-01-21T10:19:23.474Z,99579.63
2023-01-21T10:21:59.014Z,99585.81
2023-01-21T10:24:42.743Z,99570.72
2023-01-21T10:27:27.512Z,99572.00
2023-01-21T10:30:12.408Z,99579.47
2023-01-21T10:32:43.402Z,99570.44
2023-01-21T10:35:19.677Z,99569.28
2023-01-21T11:12:57.805Z,99548.53
2023-01-21T11:18:44.575Z,99540.06
2023-01-21T11:30:51.209Z,99540.97
2023-01-21T11:33:35.001Z,99540.97
2023-01-21T11:36:35.931Z,99530.44
2023-01-21T11:58:49.457Z,99522.41
2023-01-21T12:01:21.931Z,99524.50
2023-01-21T12:04:03.257Z,99540.53
2023-01-21T12:06:37.122Z,99513.56
2023-01-21T12:09:11.419Z,99513.72
2023-01-21T12:11:41.170Z,99533.50
2023-01-21T12:14:26.946Z,99519.00
2023-01-21T12:17:07.148Z,99523.38
2023-01-21T12:19:54.653Z,99533.09
2023-01-21T12:22:52.107Z,99538.59
2023-01-21T12:25:43.463Z,99538.66
2023-01-21T12:28:33.705Z,99523.72
2023-01-21T12:31:28.926Z,99521.00
2023-01-21T12:34:04.354Z,99536.25
2023-01-21T12:36:41.041Z,99541.69
2023-01-21T12:39:27.447Z,99554.09
2023-01-21T12:42:16.769Z,99545.72
2023-01-21T12:44:59.980Z,99538.53
2023-01-21T12:47:41.877Z,99537.34
2023-01-21T12:50:50.280Z,99555.09
2023-01-21T12:53:37.705Z,99539.91
2023-01-21T12:56:35.889Z,99564.28
2023-01-21T13:02:20.677Z,99531.91
2023-01-21T13:05:08.917Z,99527.47
2023-01-21T13:07:51.867Z,99536.53
2023-01-21T13:19:37.614Z,99565.09
2023-01-21T13:32:27.942Z,99568.81
2023-01-21T13:35:26.751Z,99577.31
2023-01-21T13:38:08.755Z,99569.75
2023-01-21T13:40:47.203Z,99557.59
2023-01-21T13:46:55.892Z,99566.66
2023-01-21T13:50:12.107Z,99573.69
2023-01-21T14:04:49.439Z,99592.16
2023-01-21T14:18:37.542Z,99603.25
2023-01-21T14:21:51.615Z,99608.34
2023-01-21T14:24:48.877Z,99620.41
2023-01-21T14:27:27.650Z,99617.44
2023-01-21T14:30:01.880Z,99608.34
2023-01-21T14:32:38.065Z,99615.97
2023-01-21T14:35:24.285Z,99634.56
2023-01-21T14:37:59.957Z,99629.06
2023-01-21T14:40:41.279Z,99614.88
2023-01-21T14:48:00.953Z,99619.66
2023-01-21T14:50:55.557Z,99622.28
2023-01-21T14:53:32.215Z,99632.75
2023-01-21T14:56:22.728Z,99620.41
2023-01-21T14:59:01.770Z,99638.38
2023-01-21T15:02:07.117Z,99652.72
2023-01-21T15:10:32.823Z,99638.56
2023-01-21T15:13:13.593Z,99628.63
2023-01-21T15:16:16.427Z,99638.22
2023-01-21T15:19:07.608Z,99658.91
2023-01-21T15:21:46.556Z,99647.38
2023-01-21T15:24:37.103Z,99646.59
2023-01-21T15:27:22.056Z,99648.31
2023-01-21T15:30:30.520Z,99647.78
2023-01-21T15:33:02.055Z,99664.84
2023-01-21T15:38:28.626Z,99654.81
2023-01-21T15:41:14.677Z,99668.44
2023-01-21T15:43:57.586Z,99670.19
2023-01-21T15:46:35.731Z,99660.78
2023-01-21T15:58:40.583Z,99681.28
2023-01-21T16:01:31.818Z,99678.38
2023-01-21T16:04:21.902Z,99674.91
2023-01-21T16:07:12.228Z,99700.38
2023-01-21T16:09:52.859Z,99693.00
2023-01-21T16:12:30.207Z,99701.41
2023-01-21T16:15:04.301Z,99684.25
2023-01-21T16:18:02.117Z,99715.38
2023-01-21T16:20:32.636Z,99702.13
2023-01-21T16:23:11.316Z,99691.63
2023-01-21T16:25:58.917Z,99705.00
2023-01-21T16:29:02.526Z,99699.66
2023-01-21T16:31:47.565Z,99707.94
2023-01-21T16:34:42.102Z,99690.66
2023-01-21T16:37:29.503Z,99702.53
2023-01-21T16:40:38.473Z,99696.50
2023-01-21T16:43:24.941Z,99704.81
2023-01-21T16:45:57.894Z,99708.56
2023-01-21T16:48:33.072Z,99705.47
2023-01-21T16:51:19.386Z,99726.91
2023-01-21T16:53:54.514Z,99738.75
2023-01-21T16:56:37.953Z,99725.84
2023-01-21T16:59:22.591Z,99731.75
2023-01-21T17:01:51.517Z,99730.38
2023-01-21T17:04:22.676Z,99733.75
2023-01-21T17:07:06.684Z,99749.03
2023-01-21T17:09:47.145Z,99739.06
2023-01-21T17:12:35.234Z,99753.00
2023-01-21T17:18:14.785Z,99751.94
2023-01-21T17:20:48.148Z,99755.56
2023-01-21T17:23:40.350Z,99748.66
2023-01-21T17:26:23.635Z,99753.34
2023-01-21T17:29:12.577Z,99750.06
2023-01-21T17:32:04.095Z,99745.28
2023-01-21T17:34:45.003Z,99757.94
2023-01-21T17:38:02.981Z,99755.94
2023-01-21T17:40:45.586Z,99766.88
2023-01-21T17:43:27.696Z,99769.56
2023-01-21T17:46:02.569Z,99754.81
2023-01-21T17:48:44.588Z,99768.56
2023-01-21T17:51:20.379Z,99768.31
2023-01-21T17:54:18.396Z,99776.41
2023-01-21T17:56:55.053Z,99787.97
2023-01-21T17:59:39.930Z,99777.88
2023-01-21T18:02:18.225Z,99800.09
2023-01-21T18:04:54.701Z,99793.56
2023-01-21T18:07:31.105Z,99786.31
2023-01-21T18:10:06.808Z,99781.50
2023-01-21T18:12:41.920Z,99795.03
2023-01-21T18:15:25.944Z,99795.19
2023-01-21T18:17:59.924Z,99779.63
2023-01-21T18:20:33.450Z,99793.91
2023-01-21T18:23:11.475Z,99787.63
2023-01-21T18:25:45.264Z,99803.84
2023-01-21T18:28:28.451Z,99800.16
2023-01-21T18:31:04.867Z,99786.03
2023-01-21T18:33:43.523Z,99806.13
2023-01-21T18:36:24.554Z,99808.31
2023-01-21T18:39:01.125Z,99811.78
2023-01-21T18:41:33.196Z,99803.59
2023-01-21T18:44:21.975Z,99806.78
2023-01-21T18:47:08.707Z,99808.94
2023-01-21T18:49:44.011Z,99807.44
2023-01-21T18:52:29.338Z,99816.81
2023-01-21T18:55:14.397Z,99807.22
2023-01-21T18:57:54.833Z,99824.41
2023-01-21T19:00:47.076Z,99834.75
2023-01-21T19:03:24.057Z,99818.53
2023-01-21T19:05:57.665Z,99822.38
2023-01-21T19:08:29.216Z,99827.19
2023-01-21T19:11:03.046Z,99847.28
2023-01-21T19:13:38.394Z,99837.63
2023-01-21T19:16:32.233Z,99828.91
2023-01-21T19:19:06.826Z,99840.78
2023-01-21T19:21:51.090Z,99834.59
2023-01-21T19:27:09.447Z,99854.72
2023-01-21T19:29:52.364Z,99842.03
2023-01-21T19:32:38.582Z,99872.78
2023-01-21T19:35:12.200Z,99848.00
2023-01-21T19:37:57.603Z,99868.09
2023-01-21T19:40:37.019Z,99877.44
2023-01-21T19:43:15.571Z,99879.34
2023-01-21T19:45:53.660Z,99877.72
2023-01-21T19:48:36.651Z,99881.78
2023-01-21T19:51:12.220Z,99881.38
2023-01-21T19:53:50.464Z,99879.91
2023-01-21T19:56:26.973Z,99880.38
2023-01-21T19:59:05.967Z,99887.25
2023-01-21T20:01:36.889Z,99878.84
2023-01-21T20:04:12.894Z,99878.59
2023-01-21T20:06:45.104Z,99886.31
2023-01-21T20:09:25.977Z,99891.13
2023-01-21T20:11:58.053Z,99902.34
2023-01-21T20:14:34.384Z,99891.13
2023-01-21T20:17:05.743Z,99896.44
2023-01-21T20:19:51.465Z,99904.34
2023-01-21T20:22:25.847Z,99901.22
2023-01-21T20:25:00.543Z,99914.13
2023-01-21T20:27:43.417Z,99915.31
2023-01-21T20:30:29.821Z,99909.53
2023-01-21T20:33:11.761Z,99915.38
2023-01-21T20:35:58.947Z,99906.56
2023-01-21T20:38:39.003Z,99909.97
2023-01-21T20:41:18.123Z,99914.94
2023-01-21T20:43:52.677Z,99907.13
2023-01-21T20:46:25.119Z,99916.78
2023-01-21T20:49:06.411Z,99908.66
2023-01-21T20:51:38.864Z,99902.41
2023-01-21T20:54:10.944Z,99921.41
2023-01-21T20:56:42.101Z,99907.91
2023-01-21T20:59:21.922Z,99927.00
2023-01-21T21:01:59.313Z,99921.72
2023-01-21T21:04:36.611Z,99921.41
2023-01-21T21:07:08.114Z,99920.47
2023-01-21T21:09:57.490Z,99928.59
2023-01-21T21:12:39.219Z,99931.66
2023-01-21T21:15:19.537Z,99930.53
2023-01-21T21:17:53.531Z,99944.56
2023-01-21T21:20:24.827Z,99943.44
2023-01-21T21:23:04.380Z,99938.72
2023-01-21T21:25:38.832Z,99945.91
2023-01-21T21:28:12.001Z,99948.41
2023-01-21T21:30:41.390Z,99942.38
2023-01-21T21:33:23.250Z,99947.78
2023-01-21T21:35:54.461Z,99961.94
2023-01-21T21:38:52.616Z,99935.53
2023-01-21T21:41:41.949Z,99926.31
2023-01-21T21:44:19.965Z,99932.75
2023-01-21T21:47:07.233Z,99937.72
2023-01-21T21:49:35.991Z,99945.84
2023-01-21T21:52:04.511Z,99942.53
2023-01-21T21:54:50.825Z,99943.16
2023-01-21T21:57:25.271Z,99936.25
2023-01-21T22:00:03.166Z,99943.47
2023-01-21T22:03:03.137Z,99926.56
2023-01-21T22:05:44.299Z,99939.91
2023-01-21T22:08:29.932Z,99951.50
2023-01-21T22:11:15.503Z,99953.41
2023-01-21T22:13:50.502Z,99940.97
2023-01-21T22:16:23.838Z,99937.38
2023-01-21T22:19:02.797Z,99930.91
2023-01-21T22:21:41.577Z,99932.63
2023-01-21T22:24:16.299Z,99940.72
2023-01-21T22:26:49.775Z,99937.94
2023-01-21T22:29:19.310Z,99946.75
2023-01-21T22:31:49.593Z,99950.34
2023-01-21T22:34:19.784Z,99943.44
2023-01-21T22:36:52.345Z,99944.88
2023-01-21T22:39:26.016Z,99947.84
2023-01-21T22:42:05.808Z,99948.16
2023-01-21T22:44:47.927Z,99943.47
2023-01-21T22:47:24.214Z,99958.06
2023-01-21T22:49:58.484Z,99958.16
2023-01-21T22:52:29.258Z,99966.78
2023-01-21T22:55:17.156Z,99962.00
2023-01-21T22:57:55.273Z,99963.25
2023-01-21T23:00:43.615Z,99958.84
2023-01-21T23:03:21.821Z,99976.84
2023-01-21T23:05:51.749Z,99970.50
2023-01-21T23:08:26.880Z,99957.34
2023-01-21T23:11:01.774Z,99955.31
2023-01-21T23:13:35.658Z,99952.81
2023-01-21T23:16:14.622Z,99949.16
2023-01-21T23:18:52.596Z,99967.16
2023-01-21T23:21:27.848Z,99958.28
2023-01-21T23:24:10.413Z,99973.63
2023-01-21T23:26:40.160Z,99965.47
2023-01-21T23:29:14.423Z,99965.44
2023-01-21T23:31:46.346Z,99971.13
2023-01-21T23:34:19.416Z,99949.38
2023-01-21T23:36:48.859Z,99970.72
2023-01-21T23:39:20.816Z,99970.63
2023-01-21T23:41:50.697Z,99973.13
2023-01-21T23:44:38.967Z,99972.38
2023-01-21T23:47:15.641Z,99975.22
2023-01-21T23:49:46.078Z,99973.97
2023-01-21T23:52:22.620Z,99980.63
2023-01-21T23:54:56.949Z,99988.66
2023-01-21T23:57:40.027Z,99986.25
